Time;durP1;ratioP1;P1;durP2;ratioP2;P2;SDS_P1;SDS_P2;PMS_P1;PMS_P2;Temp;Humidity;BMP_temperature;BMP_pressure;BME280_temperature;BME280_humidity;BME280_pressure;Samples;Min_cycle;Max_cycle;Signal;HPM_P1;HPM_P2
2023/05/01 00:01:52;;;;;;;9.48;6.43;;;;;;;;;;5030838;28;20490;-82
2023/05/01 00:04:20;;;;;;;10.35;6.18;;;;;;;;;;5009193;28;20480;-81
2023/05/01 00:06:49;;;;;;;12.57;6.82;;;;;;;;;;5038088;28;20409;-82
2023/05/01 00:09:15;;;;;;;11.68;6.38;;;;;;;;;;5038883;28;20409;-82
2023/05/01 00:11:53;;;;;;;10.57;6.85;;;;;;;;;;5007266;28;20949;-81
2023/05/01 00:14:22;;;;;;;9.20;6.00;;;;;;;;;;4996904;28;20471;-82
2023/05/01 00:16:48;;;;;;;12.00;5.75;;;;;;;;;;5019990;28;20951;-82
2023/05/01 00:19:17;;;;;;;9.27;6.57;;;;;;;;;;5020541;28;20414;-82
2023/05/01 00:21:47;;;;;;;10.38;5.97;;;;;;;;;;5022888;28;20877;-82
2023/05/01 00:24:19;;;;;;;11.07;6.28;;;;;;;;;;5013974;28;20422;-82
2023/05/01 00:26:50;;;;;;;11.48;6.05;;;;;;;;;;5017458;28;20785;-82
2023/05/01 00:29:19;;;;;;;10.23;6.18;;;;;;;;;;5002494;28;20406;-81
2023/05/01 00:31:48;;;;;;;10.40;6.10;;;;;;;;;;5002496;28;20482;-81
2023/05/01 00:34:20;;;;;;;10.55;6.32;;;;;;;;;;5003307;28;20395;-82
2023/05/01 00:37:06;;;;;;;11.60;5.93;;;;;;;;;;5003030;28;20426;-81
2023/05/01 00:39:41;;;;;;;12.63;6.10;;;;;;;;;;5033512;28;20938;-82
2023/05/01 00:42:08;;;;;;;10.13;6.07;;;;;;;;;;4986995;28;20494;-81
2023/05/01 00:44:34;;;;;;;9.73;6.07;;;;;;;;;;5002478;28;20403;-81
2023/05/01 00:47:01;;;;;;;12.53;6.50;;;;;;;;;;5019174;28;20403;-81
2023/05/01 00:49:27;;;;;;;12.57;5.88;;;;;;;;;;5017388;28;20403;-81
2023/05/01 00:51:53;;;;;;;11.38;6.07;;;;;;;;;;5009352;28;20798;-81
2023/05/01 00:54:21;;;;;;;10.50;6.25;;;;;;;;;;5015207;28;20747;-81
2023/05/01 00:56:48;;;;;;;10.05;6.10;;;;;;;;;;5019032;28;20419;-81
2023/05/01 00:59:17;;;;;;;11.93;6.57;;;;;;;;;;5020605;28;20470;-81
2023/05/01 01:01:43;;;;;;;12.32;6.40;;;;;;;;;;4992184;28;20426;-81
2023/05/01 01:04:10;;;;;;;11.05;6.20;;;;;;;;;;5019028;28;20887;-81
2023/05/01 01:06:48;;;;;;;11.73;6.45;;;;;;;;;;5020968;28;20904;-81
2023/05/01 01:09:15;;;;;;;12.13;6.20;;;;;;;;;;5026171;28;20417;-81
2023/05/01 01:11:57;;;;;;;12.37;6.00;;;;;;;;;;5052685;28;20424;-81
2023/05/01 01:14:31;;;;;;;10.38;6.30;;;;;;;;;;5029879;28;20928;-81
2023/05/01 01:16:58;;;;;;;11.35;6.20;;;;;;;;;;5014497;28;20433;-81
2023/05/01 01:19:25;;;;;;;11.30;6.15;;;;;;;;;;5011971;28;20443;-82
2023/05/01 01:21:53;;;;;;;9.85;5.72;;;;;;;;;;5026850;28;20425;-82
2023/05/01 01:24:35;;;;;;;11.13;6.00;;;;;;;;;;5032036;28;20457;-82
2023/05/01 01:27:05;;;;;;;12.68;6.30;;;;;;;;;;5019346;28;20421;-82
2023/05/01 01:29:49;;;;;;;9.27;5.78;;;8.50;99.90;;;;;;5018233;28;20818;-81
2023/05/01 01:32:34;;;;;;;10.30;5.78;;;;;;;;;;5018002;28;20756;-81
2023/05/01 01:35:12;;;;;;;13.77;6.45;;;8.30;99.90;;;;;;4996848;28;20432;-81
2023/05/01 01:38:01;;;;;;;11.50;6.03;;;;;;;;;;5014227;28;20426;-81
2023/05/01 01:40:31;;;;;;;11.40;6.30;;;;;;;;;;5011561;28;20545;-81
2023/05/01 01:43:05;;;;;;;12.77;6.07;;;;;;;;;;5013195;28;20408;-81
2023/05/01 01:45:42;;;;;;;9.52;6.10;;;;;;;;;;5004251;28;20817;-80
2023/05/01 01:48:10;;;;;;;10.98;6.00;;;;;;;;;;5000534;28;20488;-82
2023/05/01 01:50:37;;;;;;;11.25;5.93;;;;;;;;;;5030062;28;20800;-82
2023/05/01 01:53:05;;;;;;;11.10;6.15;;;;;;;;;;5015157;28;20437;-82
2023/05/01 01:55:34;;;;;;;9.93;6.20;;;;;;;;;;5032756;28;20419;-82
2023/05/01 01:58:01;;;;;;;12.37;6.20;;;;;;;;;;5016398;28;20915;-81
2023/05/01 02:00:28;;;;;;;12.75;6.70;;;;;;;;;;5000663;28;20411;-81
2023/05/01 02:02:54;;;;;;;9.57;6.00;;;;;;;;;;5015657;28;20475;-80
2023/05/01 02:05:21;;;;;;;11.90;6.30;;;;;;;;;;5007544;28;20818;-81
2023/05/01 02:07:49;;;;;;;10.35;6.00;;;;;;;;;;5022664;28;20409;-80
2023/05/01 02:10:16;;;;;;;11.15;6.35;;;;;;;;;;5016876;28;20423;-81
2023/05/01 02:12:45;;;;;;;9.43;5.93;;;;;;;;;;5003830;28;20425;-81
2023/05/01 02:15:12;;;;;;;11.70;6.18;;;;;;;;;;5021195;28;20409;-81
2023/05/01 02:17:40;;;;;;;10.77;6.32;;;;;;;;;;5033904;28;20451;-81
2023/05/01 02:20:08;;;;;;;9.70;5.90;;;;;;;;;;5016004;28;20899;-81
2023/05/01 02:22:35;;;;;;;13.20;6.18;;;;;;;;;;5011183;28;20854;-82
2023/05/01 02:25:02;;;;;;;11.35;6.43;;;;;;;;;;5033738;28;20438;-82
2023/05/01 02:27:34;;;;;;;10.88;6.15;;;;;;;;;;5033535;28;20414;-80
2023/05/01 02:30:00;;;;;;;12.43;6.38;;;;;;;;;;5020343;28;20509;-81
2023/05/01 02:32:27;;;;;;;10.68;6.82;;;;;;;;;;5036786;28;20443;-80
2023/05/01 02:34:53;;;;;;;12.50;6.35;;;;;;;;;;5035408;28;20419;-81
2023/05/01 02:37:20;;;;;;;13.55;6.30;;;;;;;;;;5008456;28;20429;-81
2023/05/01 02:39:46;;;;;;;11.85;6.20;;;;;;;;;;5018959;28;20425;-81
2023/05/01 02:42:14;;;;;;;11.45;6.30;;;;;;;;;;5004408;28;20418;-81
2023/05/01 02:44:50;;;;;;;12.88;6.32;;;;;;;;;;5000498;28;20436;-82
2023/05/01 02:47:19;;;;;;;12.40;6.13;;;;;;;;;;5010794;28;21000;-82
2023/05/01 02:49:46;;;;;;;9.90;6.25;;;;;;;;;;5033784;28;20406;-82
2023/05/01 02:52:14;;;;;;;11.57;6.77;;;;;;;;;;5012473;28;20417;-82
2023/05/01 02:54:40;;;;;;;12.27;6.57;;;;;;;;;;4999436;28;20433;-82
2023/05/01 02:57:06;;;;;;;13.10;6.53;;;;;;;;;;5009357;28;20470;-82
2023/05/01 02:59:33;;;;;;;15.20;6.68;;;;;;;;;;5020687;28;20527;-82
2023/05/01 03:02:00;;;;;;;10.15;5.93;;;;;;;;;;5014107;28;20456;-81
2023/05/01 03:04:26;;;;;;;10.85;6.45;;;;;;;;;;4997384;28;20409;-81
2023/05/01 03:06:53;;;;;;;12.45;6.75;;;;;;;;;;5001783;28;20493;-81
2023/05/01 03:09:20;;;;;;;9.70;6.15;;;;;;;;;;4997167;28;20452;-81
2023/05/01 03:11:46;;;;;;;9.90;6.00;;;;;;;;;;5014239;28;20526;-81
2023/05/01 03:14:14;;;;;;;10.27;6.10;;;;;;;;;;5017404;28;21002;-81
2023/05/01 03:16:40;;;;;;;10.27;6.60;;;;;;;;;;5011470;28;20427;-82
2023/05/01 03:19:07;;;;;;;9.35;6.30;;;;;;;;;;5037035;28;20423;-81
2023/05/01 03:21:33;;;;;;;9.43;6.07;;;;;;;;;;5037871;28;20425;-81
2023/05/01 03:23:59;;;;;;;12.55;6.40;;;;;;;;;;5021148;28;20418;-81
2023/05/01 03:26:26;;;;;;;12.82;6.60;;;;;;;;;;4988797;28;20490;-81
2023/05/01 03:29:12;;;;;;;10.85;6.10;;;;;;;;;;5004480;28;20414;-81
2023/05/01 03:31:41;;;;;;;13.50;6.40;;;;;;;;;;5012724;28;20430;-80
2023/05/01 03:34:07;;;;;;;12.27;6.13;;;;;;;;;;5036036;28;20434;-81
2023/05/01 03:36:36;;;;;;;13.02;6.70;;;;;;;;;;5029035;28;20988;-80
2023/05/01 03:39:08;;;;;;;12.85;6.75;;;;;;;;;;5015520;28;20748;-80
2023/05/01 03:41:34;;;;;;;12.18;6.45;;;;;;;;;;5004619;28;20407;-80
2023/05/01 03:44:01;;;;;;;12.05;7.03;;;;;;;;;;5018622;28;20457;-80
2023/05/01 03:46:27;;;;;;;12.05;6.60;;;;;;;;;;5000529;28;20478;-81
2023/05/01 03:48:54;;;;;;;13.20;6.70;;;;;;;;;;5003833;28;20421;-81
2023/05/01 03:51:20;;;;;;;10.52;6.55;;;;;;;;;;5036279;28;20429;-79
2023/05/01 03:53:46;;;;;;;11.57;6.43;;;;;;;;;;5020144;28;20411;-80
2023/05/01 03:56:12;;;;;;;11.75;6.57;;;;;;;;;;5003365;28;20426;-81
2023/05/01 03:58:41;;;;;;;11.97;6.70;;;;;;;;;;5008123;28;20434;-80
2023/05/01 04:01:07;;;;;;;14.80;7.10;;;;;;;;;;4993955;28;20434;-80
2023/05/01 04:03:37;;;;;;;11.07;6.77;;;;;;;;;;5004115;28;20484;-80
2023/05/01 04:06:06;;;;;;;12.75;7.20;;;;;;;;;;5035639;28;20770;-80
2023/05/01 04:08:36;;;;;;;13.80;7.00;;;;;;;;;;5035496;28;20477;-80
2023/05/01 04:11:05;;;;;;;12.10;7.18;;;;;;;;;;5012427;28;20424;-81
2023/05/01 04:13:31;;;;;;;12.13;6.80;;;;;;;;;;5013269;28;20502;-81
2023/05/01 04:15:58;;;;;;;13.02;7.20;;;;;;;;;;5019619;28;20449;-83
2023/05/01 04:18:30;;;;;;;12.23;7.00;;;;;;;;;;5016540;28;20436;-83
2023/05/01 04:20:56;;;;;;;11.65;7.30;;;;;;;;;;5014499;28;20418;-82
2023/05/01 04:23:23;;;;;;;10.43;7.23;;;;;;;;;;5019102;28;20415;-81
2023/05/01 04:25:49;;;;;;;10.32;7.10;;;;;;;;;;5036565;28;20439;-82
2023/05/01 04:28:15;;;;;;;11.88;7.43;;;;;;;;;;5008061;28;20487;-82
2023/05/01 04:30:41;;;;;;;14.10;8.13;;;;;;;;;;5015692;28;20416;-81
2023/05/01 04:33:10;;;;;;;16.05;10.45;;;;;;;;;;5000218;28;20453;-81
2023/05/01 04:35:40;;;;;;;12.57;7.17;;;;;;;;;;5010187;28;20587;-81
2023/05/01 04:38:44;;;;;;;14.63;7.30;;;;;;;;;;5014971;28;20433;-81
2023/05/01 04:44:55;;;;;;;13.97;7.40;;;;;;;;;;4948623;28;20508;-80
2023/05/01 04:48:05;;;;;;;15.57;7.50;;;;;;;;;;4957115;28;20432;-81
2023/05/01 04:50:28;;;;;;;13.73;7.50;;;;;;;;;;4953951;28;20475;-81
2023/05/01 04:52:58;;;;;;;12.43;7.00;;;;;;;;;;4959644;28;20420;-81
2023/05/01 04:55:24;;;;;;;12.85;7.00;;;;;;;;;;4959443;28;20420;-81
2023/05/01 04:58:02;;;;;;;12.30;7.53;;;;;;;;;;5005268;28;20423;-82
2023/05/01 05:00:38;;;;;;;13.00;7.50;;;;;;;;;;5003535;28;20433;-81
2023/05/01 05:06:47;;;;;;;15.52;7.20;;;7.80;99.90;;;;;;4935691;29;20435;-80
2023/05/01 05:09:16;;;;;;;12.27;7.00;;;;;;;;;;4904172;29;20415;-81
2023/05/01 05:12:04;;;;;;;12.35;7.43;;;;;;;;;;5005344;28;20919;-81
2023/05/01 05:15:15;;;;;;;12.18;6.90;;;;;;;;;;5013939;28;20499;-80
2023/05/01 05:18:02;;;;;;;14.50;7.20;;;;;;;;;;4958433;28;20467;-82
2023/05/01 05:24:44;;;;;;;;;;;;;;;;;;;;;
2023/05/01 05:27:31;;;;;;;11.07;6.75;;;;;;;;;;5014379;28;20409;-81
2023/05/01 05:36:42;;;;;;;;;;;;;;;;;;;;;
2023/05/01 05:40:02;;;;;;;13.55;7.13;;;;;;;;;;5016196;28;20512;-82
2023/05/01 05:42:55;;;;;;;12.88;7.75;;;;;;;;;;4918481;29;20487;-82
2023/05/01 05:45:22;;;;;;;11.45;7.28;;;;;;;;;;4920479;28;20885;-83
2023/05/01 05:48:05;;;;;;;13.55;7.57;;;;;;;;;;5015987;28;20489;-82
2023/05/01 05:51:23;;;;;;;;;;;;;;;;;;;;;
2023/05/01 05:54:18;;;;;;;13.48;7.38;;;;;;;;;;5032871;28;20425;-82
2023/05/01 05:57:02;;;;;;;13.07;7.00;;;;;;;;;;5025791;28;20950;-82
2023/05/01 05:59:47;;;;;;;13.70;7.15;;;;;;;;;;5032414;28;20432;-80
2023/05/01 06:02:13;;;;;;;15.18;7.57;;;;;;;;;;5027389;28;20477;-80
2023/05/01 06:04:39;;;;;;;12.05;7.22;;;;;;;;;;5012131;28;20935;-80
2023/05/01 06:07:05;;;;;;;13.63;7.78;;;;;;;;;;5019211;28;20426;-80
2023/05/01 06:09:32;;;;;;;11.45;7.20;;;;;;;;;;5000036;28;20435;-78
2023/05/01 06:11:58;;;;;;;11.23;7.40;;;;;;;;;;5027450;28;20425;-80
2023/05/01 06:14:24;;;;;;;11.52;7.38;;;;;;;;;;4995017;28;20928;-80
2023/05/01 06:16:51;;;;;;;11.33;7.23;;;;;;;;;;5000009;28;20505;-80
2023/05/01 06:19:17;;;;;;;12.50;7.00;;;;;;;;;;5030710;28;20812;-80
2023/05/01 06:21:45;;;;;;;12.15;6.90;;;;;;;;;;4996063;28;20517;-80
2023/05/01 06:24:12;;;;;;;13.40;7.03;;;;;;;;;;5026497;28;20511;-80
2023/05/01 06:26:38;;;;;;;11.20;7.18;;;;;;;;;;5016816;28;20476;-80
2023/05/01 06:29:04;;;;;;;14.15;7.85;;;;;;;;;;5030658;28;20486;-81
2023/05/01 06:31:30;;;;;;;13.30;7.15;;;;;;;;;;5015016;28;20427;-80
2023/05/01 06:33:56;;;;;;;11.27;6.63;;;;;;;;;;5043555;28;20421;-81
2023/05/01 06:36:22;;;;;;;15.65;7.10;;;;;;;;;;5032077;28;20921;-81
2023/05/01 06:38:48;;;;;;;11.13;6.82;;;;;;;;;;5017224;28;20500;-81
2023/05/01 06:41:17;;;;;;;11.07;7.03;;;;;;;;;;5017077;28;20459;-81
2023/05/01 06:43:44;;;;;;;11.90;7.15;;;;;;;;;;5004815;28;20427;-80
2023/05/01 06:46:12;;;;;;;10.85;7.20;;;;;;;;;;5011826;28;20918;-80
2023/05/01 06:48:39;;;;;;;12.63;6.93;;;;;;;;;;5026163;28;20427;-80
2023/05/01 06:51:05;;;;;;;11.85;6.97;;;;;;;;;;5026505;28;20914;-78
2023/05/01 06:53:31;;;;;;;12.23;6.63;;;;;;;;;;5022345;28;20431;-80
2023/05/01 06:55:57;;;;;;;12.43;6.80;;;;;;;;;;5012509;28;20928;-79
2023/05/01 06:58:23;;;;;;;14.98;7.05;;;;;;;;;;5024758;28;20568;-79
2023/05/01 07:00:49;;;;;;;11.75;6.22;;;;;;;;;;5023014;28;20439;-79
2023/05/01 07:03:15;;;;;;;11.35;6.68;;;;;;;;;;5022450;28;20897;-80
2023/05/01 07:05:42;;;;;;;10.63;6.63;;;;;;;;;;5011418;28;20935;-79
2023/05/01 07:08:09;;;;;;;12.07;7.00;;;;;;;;;;5026964;28;20420;-79
2023/05/01 07:10:35;;;;;;;12.25;6.60;;;;;;;;;;4991685;28;20432;-80
2023/05/01 07:13:01;;;;;;;12.35;6.75;;;;;;;;;;5028345;28;20529;-80
2023/05/01 07:15:27;;;;;;;11.77;6.90;;;;;;;;;;5013379;28;20514;-80
2023/05/01 07:17:55;;;;;;;12.43;6.57;;;;;;;;;;4999294;28;20432;-81
2023/05/01 07:20:21;;;;;;;13.68;7.07;;;;;;;;;;5009552;28;20494;-81
2023/05/01 07:22:47;;;;;;;12.73;7.00;;;;;;;;;;5025754;28;20938;-80
2023/05/01 07:25:13;;;;;;;11.57;6.43;;;;;;;;;;5028368;28;20828;-81
2023/05/01 07:27:40;;;;;;;10.55;6.28;;;;;;;;;;5011698;28;21568;-81
2023/05/01 07:30:06;;;;;;;12.48;6.20;;;;;;;;;;5024151;28;20540;-80
2023/05/01 07:32:32;;;;;;;11.27;6.60;;;;;;;;;;5019599;28;20439;-81
2023/05/01 07:34:58;;;;;;;12.25;6.43;;;;;;;;;;5009727;28;20422;-79
2023/05/01 07:37:25;;;;;;;10.40;5.95;;;;;;;;;;5011847;28;20432;-80
2023/05/01 07:39:52;;;;;;;10.13;6.13;;;;;;;;;;5025444;28;20428;-80
2023/05/01 07:42:18;;;;;;;12.13;6.13;;;;;;;;;;5033644;28;20417;-80
2023/05/01 07:44:46;;;;;;;11.73;6.15;;;;;;;;;;5021332;28;21776;-79
2023/05/01 07:47:12;;;;;;;11.20;5.97;;;;;;;;;;5018294;28;20451;-79
2023/05/01 07:49:38;;;;;;;12.95;6.38;;;;;;;;;;5022451;28;20984;-80
2023/05/01 07:52:08;;;;;;;11.75;6.38;;;;;;;;;;5025995;28;20426;-80
2023/05/01 07:54:34;;;;;;;11.60;5.93;;;;;;;;;;5017518;28;20425;-81
2023/05/01 07:57:00;;;;;;;11.50;6.10;;;;;;;;;;5013423;28;20434;-80
2023/05/01 07:59:27;;;;;;;12.32;6.15;;;;;;;;;;5012943;28;20424;-83
2023/05/01 08:01:53;;;;;;;12.23;5.50;;;;;;;;;;5007016;28;20423;-82
2023/05/01 08:04:21;;;;;;;10.18;5.72;;;;;;;;;;5018181;28;20418;-83
2023/05/01 08:06:53;;;;;;;10.85;5.88;;;;;;;;;;5007193;28;20440;-83
2023/05/01 08:09:19;;;;;;;15.00;5.70;;;;;;;;;;5007470;28;20433;-82
2023/05/01 08:11:55;;;;;;;10.90;5.40;;;;;;;;;;5014704;28;20391;-82
2023/05/01 08:14:21;;;;;;;10.85;4.80;;;;;;;;;;5008917;28;20451;-82
2023/05/01 08:16:54;;;;;;;11.65;4.97;;;;;;;;;;5007012;28;20430;-82
2023/05/01 08:19:23;;;;;;;13.85;5.65;;;;;;;;;;5044886;28;20403;-82
2023/05/01 08:21:49;;;;;;;9.45;4.90;;;;;;;;;;5035151;28;20424;-82
2023/05/01 08:24:15;;;;;;;9.00;4.70;;;;;;;;;;5014279;28;20526;-82
2023/05/01 08:26:42;;;;;;;9.30;4.77;;;;;;;;;;4998434;28;20732;-83
2023/05/01 08:29:09;;;;;;;10.40;4.72;;;;;;;;;;5001525;28;20488;-83
2023/05/01 08:31:49;;;;;;;9.70;4.67;;;;;;;;;;5021795;28;20429;-82
2023/05/01 08:34:16;;;;;;;8.38;4.55;;;;;;;;;;5009808;28;20974;-82
2023/05/01 08:36:43;;;;;;;9.38;4.57;;;;;;;;;;5027435;28;20461;-83
2023/05/01 08:39:09;;;;;;;11.07;4.90;;;;;;;;;;5014411;28;20792;-82
2023/05/01 08:41:37;;;;;;;9.32;4.50;;;;;;;;;;5005763;28;20479;-82
2023/05/01 08:44:10;;;;;;;9.95;4.53;;;;;;;;;;5031308;28;20403;-82
2023/05/01 08:46:43;;;;;;;8.63;4.10;;;;;;;;;;5007128;28;20432;-80
2023/05/01 08:49:10;;;;;;;7.88;4.05;;;;;;;;;;5028582;28;20421;-81
2023/05/01 08:51:37;;;;;;;7.82;4.50;;;;;;;;;;5019382;28;20432;-81
2023/05/01 08:54:04;;;;;;;8.45;4.38;;;;;;;;;;5026750;28;20406;-81
2023/05/01 08:56:30;;;;;;;11.82;4.40;;;16.20;99.90;;;;;;5015089;28;20562;-81
2023/05/01 08:58:59;;;;;;;9.20;4.45;;;16.70;99.90;;;;;;5018506;28;20480;-81
2023/05/01 09:01:27;;;;;;;8.82;3.92;;;;;;;;;;5001975;28;20405;-81
2023/05/01 09:03:54;;;;;;;10.73;4.20;;;;;;;;;;5027642;28;20458;-81
2023/05/01 09:06:20;;;;;;;5.55;3.50;;;;;;;;;;5011277;28;20893;-81
2023/05/01 09:08:46;;;;;;;8.95;3.58;;;;;;;;;;5028912;28;20417;-81
2023/05/01 09:11:12;;;;;;;7.18;3.60;;;;;;;;;;5022534;28;20439;-80
2023/05/01 09:13:39;;;;;;;8.90;4.80;;;;;;;;;;5011059;28;20421;-81
2023/05/01 09:16:06;;;;;;;7.88;4.15;;;;;;;;;;5012239;28;20453;-82
2023/05/01 09:18:33;;;;;;;7.15;3.88;;;;;;;;;;5014262;28;20434;-81
2023/05/01 09:21:00;;;;;;;7.50;3.53;;;;;;;;;;5033619;28;20423;-81
2023/05/01 09:23:27;;;;;;;7.90;3.72;;;;;;;;;;5026665;28;20492;-80
2023/05/01 09:25:53;;;;;;;7.80;3.40;;;;;;;;;;5032975;28;20912;-81
2023/05/01 09:28:19;;;;;;;6.38;3.30;;;;;;;;;;5011209;28;20436;-82
2023/05/01 09:30:45;;;;;;;8.25;3.85;;;;;;;;;;5033595;28;20422;-82
2023/05/01 09:33:12;;;;;;;7.45;3.67;;;17.80;99.90;;;;;;5015895;28;20435;-82
2023/05/01 09:35:48;;;;;;;6.45;3.75;;;;;;;;;;5029667;28;20422;-82
2023/05/01 09:38:22;;;;;;;5.70;3.58;;;18.20;99.90;;;;;;5026729;28;20518;-81
2023/05/01 09:40:48;;;;;;;6.72;3.13;;;;;;;;;;5017443;28;20469;-81
2023/05/01 09:43:24;;;;;;;7.30;2.33;;;18.40;99.90;;;;;;5031769;28;20484;-81
2023/05/01 09:46:21;;;;;;;6.68;3.03;;;18.30;99.90;;;;;;5028168;28;20423;-82
2023/05/01 09:49:02;;;;;;;6.28;3.00;;;;;;;;;;4993309;28;20427;-82
2023/05/01 09:51:28;;;;;;;5.70;3.05;;;;;;;;;;5026766;28;20420;-82
2023/05/01 09:53:58;;;;;;;7.50;3.17;;;;;;;;;;5010808;28;20409;-81
2023/05/01 09:56:27;;;;;;;5.00;2.42;;;;;;;;;;5000575;28;20479;-81
2023/05/01 09:58:54;;;;;;;6.00;2.67;;;;;;;;;;5011889;28;20817;-81
2023/05/01 10:01:39;;;;;;;4.90;2.20;;;;;;;;;;5020643;28;20544;-81
2023/05/01 10:04:05;;;;;;;5.88;2.78;;;;;;;;;;5011198;28;20425;-81
2023/05/01 10:06:31;;;;;;;5.30;2.67;;;;;;;;;;5009082;28;20446;-80
2023/05/01 10:08:57;;;;;;;5.97;2.65;;;;;;;;;;5021978;28;20498;-81
2023/05/01 10:11:25;;;;;;;6.43;3.00;;;;;;;;;;4999105;28;20466;-81
2023/05/01 10:14:08;;;;;;;5.35;3.05;;;;;;;;;;5033525;28;20423;-81
2023/05/01 10:16:36;;;;;;;7.00;3.10;;;;;;;;;;5028253;28;20427;-82
2023/05/01 10:19:03;;;;;;;5.47;3.20;;;19.10;99.90;;;;;;5025000;28;20473;-82
2023/05/01 10:21:30;;;;;;;6.10;3.40;;;;;;;;;;5010977;28;20506;-81
2023/05/01 10:23:57;;;;;;;6.45;3.03;;;;;;;;;;4989233;28;20430;-81
2023/05/01 10:26:25;;;;;;;8.40;3.63;;;;;;;;;;5012757;28;20470;-82
2023/05/01 10:28:52;;;;;;;7.00;3.80;;;;;;;;;;5029578;28;20817;-81
2023/05/01 10:31:18;;;;;;;7.55;4.00;;;;;;;;;;5027848;28;20423;-80
2023/05/01 10:33:45;;;;;;;7.53;3.25;;;;;;;;;;5032280;28;20522;-80
2023/05/01 10:36:40;;;;;;;6.03;2.90;;;;;;;;;;5012973;28;20427;-81
2023/05/01 10:39:06;;;;;;;6.68;3.30;;;;;;;;;;5006220;28;20439;-79
2023/05/01 10:42:00;;;;;;;5.18;2.88;;;18.90;99.90;;;;;;5009235;28;20510;-80
2023/05/01 10:44:26;;;;;;;8.87;4.20;;;;;;;;;;5008723;28;20979;-78
2023/05/01 10:46:53;;;;;;;7.18;3.70;;;;;;;;;;4994291;28;20411;-78
2023/05/01 10:49:20;;;;;;;7.28;3.60;;;;;;;;;;4999194;28;20427;-79
2023/05/01 10:52:02;;;;;;;5.93;3.60;;;;;;;;;;5031205;28;20434;-79
2023/05/01 10:54:29;;;;;;;7.72;4.00;;;;;;;;;;5011402;28;20497;-81
2023/05/01 10:56:57;;;;;;;5.88;3.78;;;;;;;;;;5031759;28;20454;-80
2023/05/01 10:59:23;;;;;;;5.27;2.97;;;;;;;;;;5029538;28;20418;-79
2023/05/01 11:01:53;;;;;;;5.82;3.20;;;;;;;;;;5006552;28;20781;-79
2023/05/01 11:04:22;;;;;;;10.18;3.20;;;;;;;;;;5022973;28;20461;-81
2023/05/01 11:07:07;;;;;;;5.47;2.45;;;19.40;99.90;;;;;;5018617;28;20491;-80
2023/05/01 11:09:36;;;;;;;4.27;2.20;;;;;;;;;;5002372;28;20897;-83
2023/05/01 11:12:12;;;;;;;4.05;2.00;;;;;;;;;;5006617;28;20511;-80
2023/05/01 11:15:01;;;;;;;3.35;1.83;;;;;;;;;;5003495;28;20947;-80
2023/05/01 11:17:40;;;;;;;4.72;1.80;;;;;;;;;;4997521;28;20487;-79
2023/05/01 11:20:29;;;;;;;4.30;1.70;;;19.40;99.90;;;;;;5012492;28;20458;-79
2023/05/01 11:22:56;;;;;;;4.28;1.83;;;19.30;99.90;;;;;;5013418;28;20403;-80
2023/05/01 11:25:29;;;;;;;2.90;1.60;;;;;;;;;;5033317;28;20403;-78
2023/05/01 11:28:08;;;;;;;4.88;1.98;;;;;;;;;;5011008;28;20428;-80
2023/05/01 11:30:41;;;;;;;4.18;1.75;;;;;;;;;;5022062;28;20467;-79
2023/05/01 11:33:07;;;;;;;3.58;1.90;;;;;;;;;;5005101;28;20986;-80
2023/05/01 11:35:33;;;;;;;5.45;2.35;;;19.50;99.90;;;;;;4988555;28;20428;-80
2023/05/01 11:37:59;;;;;;;3.90;1.92;;;;;;;;;;5017039;28;20429;-81
2023/05/01 11:40:26;;;;;;;3.03;1.60;;;;;;;;;;5016144;28;20518;-80
2023/05/01 11:43:11;;;;;;;4.97;1.85;;;;;;;;;;5027420;28;20423;-80
2023/05/01 11:45:37;;;;;;;4.45;2.08;;;;;;;;;;5000257;28;20504;-79
2023/05/01 11:48:04;;;;;;;4.55;2.17;;;;;;;;;;5016237;28;20486;-79
2023/05/01 11:50:34;;;;;;;3.80;1.90;;;20.20;99.90;;;;;;5032037;28;20423;-79
2023/05/01 11:53:00;;;;;;;4.03;2.05;;;;;;;;;;5015254;28;20436;-80
2023/05/01 11:55:33;;;;;;;6.40;2.22;;;19.70;99.90;;;;;;5018869;28;20412;-81
2023/05/01 11:58:00;;;;;;;4.57;2.20;;;19.60;99.90;;;;;;5015540;28;20444;-80
2023/05/01 12:00:28;;;;;;;4.27;2.30;;;19.60;99.90;;;;;;5015749;28;20489;-80
2023/05/01 12:03:07;;;;;;;4.72;2.63;;;19.10;99.90;;;;;;5002400;28;20433;-79
2023/05/01 12:05:37;;;;;;;5.70;2.50;;;19.00;99.90;;;;;;5035475;28;20423;-79
2023/05/01 12:08:17;;;;;;;5.15;2.80;;;18.80;99.90;;;;;;5035427;28;20427;-79
2023/05/01 12:10:43;;;;;;;4.68;2.20;;;;;;;;;;5028126;28;20411;-80
2023/05/01 12:13:11;;;;;;;5.50;2.70;;;18.80;99.90;;;;;;5031494;28;20428;-80
2023/05/01 12:15:39;;;;;;;3.75;2.33;;;;;;;;;;5034914;28;20487;-79
2023/05/01 12:18:06;;;;;;;6.40;3.03;;;;;;;;;;5017443;28;20432;-79
2023/05/01 12:20:36;;;;;;;6.65;3.10;;;18.90;99.90;;;;;;5015311;28;20405;-79
2023/05/01 12:23:04;;;;;;;6.55;2.88;;;19.10;99.90;;;;;;4998234;28;20454;-80
2023/05/01 12:25:32;;;;;;;5.97;2.77;;;19.20;99.90;;;;;;5016659;28;20431;-80
2023/05/01 12:27:59;;;;;;;5.60;2.93;;;;;;;;;;5018630;28;20403;-79
2023/05/01 12:30:28;;;;;;;5.88;2.80;;;;;;;;;;5004334;28;20428;-80
2023/05/01 12:32:55;;;;;;;6.15;2.80;;;;;;;;;;5019430;28;20430;-80
2023/05/01 12:35:21;;;;;;;6.27;3.90;;;;;;;;;;5018277;28;20410;-80
2023/05/01 12:37:48;;;;;;;4.55;2.53;;;;;;;;;;5018190;28;20976;-80
2023/05/01 12:40:14;;;;;;;4.70;2.47;;;;;;;;;;5017502;28;20466;-79
2023/05/01 12:42:41;;;;;;;6.00;2.45;;;;;;;;;;5019602;28;20908;-80
2023/05/01 12:45:13;;;;;;;5.63;2.20;;;;;;;;;;4998827;28;20574;-79
2023/05/01 12:47:40;;;;;;;5.35;2.83;;;;;;;;;;5016230;28;20417;-79
2023/05/01 12:50:06;;;;;;;6.47;3.55;;;;;;;;;;5014080;28;20417;-79
2023/05/01 12:52:32;;;;;;;4.60;2.38;;;;;;;;;;5014844;28;20413;-79
2023/05/01 12:55:03;;;;;;;4.88;2.42;;;;;;;;;;5032967;28;20505;-80
2023/05/01 12:57:29;;;;;;;4.95;2.38;;;;;;;;;;5037681;28;20457;-80
2023/05/01 13:00:03;;;;;;;6.00;3.60;;;;;;;;;;5037248;28;20417;-79
2023/05/01 13:02:31;;;;;;;8.32;6.13;;;;;;;;;;5017183;28;20430;-80
2023/05/01 13:05:10;;;;;;;9.25;5.68;;;;;;;;;;5032167;28;20427;-79
2023/05/01 13:07:38;;;;;;;8.00;4.03;;;;;;;;;;5029946;28;20991;-80
2023/05/01 13:10:05;;;;;;;6.35;2.85;;;;;;;;;;5031679;28;20427;-82
2023/05/01 13:12:31;;;;;;;7.87;2.80;;;;;;;;;;5012735;28;20420;-80
2023/05/01 13:14:58;;;;;;;8.40;4.20;;;;;;;;;;5000218;28;20404;-80
2023/05/01 13:17:28;;;;;;;6.78;3.08;;;;;;;;;;5034182;28;20427;-80
2023/05/01 13:19:55;;;;;;;5.65;2.80;;;;;;;;;;5014465;28;20427;-78
2023/05/01 13:22:34;;;;;;;7.60;3.57;;;;;;;;;;5034576;28;20423;-80
2023/05/01 13:25:02;;;;;;;10.93;4.40;;;;;;;;;;5034230;28;20879;-79
2023/05/01 13:27:29;;;;;;;7.82;4.07;;;;;;;;;;5034882;28;20402;-78
2023/05/01 13:29:56;;;;;;;6.63;3.78;;;;;;;;;;5035369;28;21109;-79
2023/05/01 13:32:23;;;;;;;6.18;3.40;;;;;;;;;;5032928;28;20419;-79
2023/05/01 13:34:49;;;;;;;6.78;3.50;;;;;;;;;;5028533;28;20419;-79
2023/05/01 13:37:16;;;;;;;6.68;3.20;;;;;;;;;;4999796;28;20466;-78
2023/05/01 13:39:46;;;;;;;6.60;3.55;;;;;;;;;;5020322;28;20929;-78
2023/05/01 13:42:12;;;;;;;7.80;3.80;;;;;;;;;;5011748;28;20507;-79
2023/05/01 13:44:45;;;;;;;6.03;3.80;;;;;;;;;;4997859;28;20408;-78
2023/05/01 13:47:16;;;;;;;8.02;3.80;;;;;;;;;;5009633;28;20825;-79
2023/05/01 13:49:43;;;;;;;9.57;4.07;;;;;;;;;;5021505;28;20862;-78
2023/05/01 13:52:14;;;;;;;7.63;4.05;;;;;;;;;;5027956;28;20508;-78
2023/05/01 13:54:41;;;;;;;7.75;4.32;;;;;;;;;;5027172;28;20418;-78
2023/05/01 13:57:08;;;;;;;6.03;4.20;;;;;;;;;;4994750;28;20421;-78
2023/05/01 13:59:44;;;;;;;6.70;4.10;;;;;;;;;;5031650;28;20449;-78
2023/05/01 14:02:21;;;;;;;6.68;4.30;;;;;;;;;;5026774;28;20416;-79
2023/05/01 14:04:50;;;;;;;8.13;4.43;;;;;;;;;;5031527;28;20409;-78
2023/05/01 14:07:22;;;;;;;7.78;4.50;;;;;;;;;;5021511;28;20484;-78
2023/05/01 14:09:55;;;;;;;7.75;4.45;;;;;;;;;;5031210;28;20419;-77
2023/05/01 14:12:26;;;;;;;10.18;4.32;;;;;;;;;;5012351;28;20925;-78
2023/05/01 14:14:52;;;;;;;7.90;4.10;;;;;;;;;;5028871;28;20425;-79
2023/05/01 14:17:19;;;;;;;6.28;3.70;;;;;;;;;;5031893;28;20518;-78
2023/05/01 14:19:45;;;;;;;7.47;3.75;;;;;;;;;;5025695;28;20419;-78
2023/05/01 14:22:11;;;;;;;6.30;3.90;;;;;;;;;;5033139;28;20515;-78
2023/05/01 14:24:39;;;;;;;8.05;3.90;;;;;;;;;;5025393;28;20434;-77
2023/05/01 14:27:09;;;;;;;7.05;3.90;;;;;;;;;;5029143;28;20431;-78
2023/05/01 14:29:35;;;;;;;8.57;4.30;;;;;;;;;;5006498;28;20497;-78
2023/05/01 14:32:03;;;;;;;6.63;3.63;;;;;;;;;;5039537;28;20428;-78
2023/05/01 14:34:29;;;;;;;5.45;3.58;;;;;;;;;;5029354;28;20436;-79
2023/05/01 14:36:55;;;;;;;4.30;2.47;;;;;;;;;;5026791;28;20440;-79
2023/05/01 14:39:22;;;;;;;4.65;2.97;;;;;;;;;;5030157;28;20490;-78
2023/05/01 14:41:48;;;;;;;5.30;3.23;;;;;;;;;;5024359;28;20548;-77
2023/05/01 14:44:19;;;;;;;6.45;3.58;;;;;;;;;;5025769;28;20432;-78
2023/05/01 14:46:50;;;;;;;5.18;2.80;;;;;;;;;;5038456;28;20408;-78
2023/05/01 14:49:18;;;;;;;7.90;3.97;;;;;;;;;;5015769;28;20423;-78
2023/05/01 14:51:50;;;;;;;6.57;3.50;;;;;;;;;;5009039;28;20770;-78
2023/05/01 14:54:17;;;;;;;7.32;4.22;;;;;;;;;;5011159;28;20482;-78
2023/05/01 14:56:43;;;;;;;6.85;4.00;;;;;;;;;;5025766;28;20510;-78
2023/05/01 14:59:09;;;;;;;6.38;4.20;;;;;;;;;;5027260;28;20938;-78
2023/05/01 15:01:36;;;;;;;9.90;4.75;;;;;;;;;;5025620;28;20427;-78
2023/05/01 15:04:02;;;;;;;7.95;4.90;;;;;;;;;;5007566;28;20921;-79